sim
Sign-in with your pilot id or email,
or register
Callsign
Passwort

Schedule Details

Flight Number: OEO1995
Departure: Leipzig Halle Airport (EDDP) at 07:15
Arrival: Munich Airport (EDDM) at 08:25

Weather Information
Getting current METAR information for EDDP 010020Z 14003KT 110V170 9999 FEW048 11/10 Q1011 NOSIG
Getting current METAR information for EDDM 010020Z 33001KT 1500 0500NE R08L/0550D R08R/0700N BCFG NSC 05/05 Q1011 NOSIG

Schedule Frequency

Route Map